Time;durP1;ratioP1;P1;durP2;ratioP2;P2;SDS_P1;SDS_P2;PMS_P1;PMS_P2;Temp;Humidity;BMP_temperature;BMP_pressure;BME280_temperature;BME280_humidity;BME280_pressure;Samples;Min_cycle;Max_cycle;Signal;HPM_P1;HPM_P2
2022/05/18 00:00:17;;;;;;;;;;;;;;;17.76;56.28;98518.28;5161800;27;19962;-59
2022/05/18 00:02:45;;;;;;;;;;;;;;;17.65;56.60;98511.63;5160205;27;20378;-59
2022/05/18 00:05:14;;;;;;;;;;;;;;;17.78;56.26;98516.00;5159640;27;19979;-59
2022/05/18 00:07:42;;;;;;;;;;;;;;;17.89;55.99;98521.03;5154809;27;20143;-60
2022/05/18 00:10:10;;;;;;;;;;;;;;;17.63;56.61;98516.69;5163801;27;19918;-59
2022/05/18 00:12:43;;;;;;;;;;;;;;;17.82;56.31;98521.63;5155580;27;19972;-60
2022/05/18 00:15:11;;;;;;;;;;;;;;;17.68;56.82;98512.88;5154494;27;20282;-61
2022/05/18 00:17:39;;;;;;;;;;;;;;;17.68;56.66;98516.41;5142640;27;19919;-59
2022/05/18 00:20:07;;;;;;;;;;;;;;;17.63;56.85;98519.44;5146305;27;19927;-60
2022/05/18 00:22:44;;;;;;;;;;;;;;;17.60;56.87;98517.34;5139344;27;19928;-59
2022/05/18 00:25:13;;;;;;;;;;;;;;;17.57;57.06;98523.50;5148909;27;19927;-59
2022/05/18 00:27:41;;;;;;;;;;;;;;;17.52;57.17;98530.06;5155254;27;19953;-59
2022/05/18 00:30:10;;;;;;;;;;;;;;;17.40;57.16;98531.97;5152202;27;20349;-60
2022/05/18 00:32:38;;;;;;;;;;;;;;;17.36;57.49;98529.09;5141133;27;19935;-59
2022/05/18 00:35:08;;;;;;;;;;;;;;;17.65;56.97;98519.06;5165951;27;19919;-59
2022/05/18 00:37:37;;;;;;;;;;;;;;;17.62;57.00;98520.53;5158988;27;20299;-58
2022/05/18 00:40:07;;;;;;;;;;;;;;;17.65;56.98;98522.63;5156422;27;19920;-61
2022/05/18 00:42:35;;;;;;;;;;;;;;;17.54;57.21;98538.75;5167712;27;19991;-61
2022/05/18 00:45:29;;;;;;;;;;;;;;;17.39;57.26;98536.66;5159761;27;19946;-59
2022/05/18 00:47:57;;;;;;;;;;;;;;;17.22;57.87;98531.38;5164671;27;20268;-60
2022/05/18 00:50:26;;;;;;;;;;;;;;;17.18;57.75;98525.75;5165847;27;19926;-60
2022/05/18 00:52:57;;;;;;;;;;;;;;;17.32;57.47;98525.44;5153499;27;19920;-60
2022/05/18 00:55:27;;;;;;;;;;;;;;;17.22;57.90;98520.41;5155695;27;19943;-58
2022/05/18 00:57:56;;;;;;;;;;;;;;;17.51;57.36;98527.63;5137132;27;19923;-58
2022/05/18 01:00:24;;;;;;;;;;;;;;;17.46;57.21;98536.09;5158100;27;20135;-58
2022/05/18 01:02:54;;;;;;;;;;;;;;;17.11;57.87;98525.53;5153266;27;20038;-63
2022/05/18 01:05:24;;;;;;;;;;;;;;;17.05;57.92;98529.63;5157600;27;19923;-60
2022/05/18 01:07:53;;;;;;;;;;;;;;;17.21;57.83;98524.28;5162033;27;19918;-61
2022/05/18 01:10:22;;;;;;;;;;;;;;;17.12;57.98;98537.31;5157922;27;19931;-59
2022/05/18 01:13:15;;;;;;;;;;;;;;;17.03;58.21;98540.13;5158954;27;19923;-59
2022/05/18 01:15:43;;;;;;;;;;;;;;;16.92;58.85;98544.44;5151000;27;20026;-59
2022/05/18 01:18:13;;;;;;;;;;;;;;;16.92;58.49;98544.44;5135524;27;20018;-59
2022/05/18 01:20:41;;;;;;;;;;;;;;;16.79;58.98;98540.84;5121976;27;19923;-59
2022/05/18 01:23:13;;;;;;;;;;;;;;;16.93;58.70;98544.09;5147830;27;19922;-59
2022/05/18 01:25:47;;;;;;;;;;;;;;;17.06;58.28;98539.47;5145673;27;19920;-59
2022/05/18 01:28:17;;;;;;;;;;;;;;;17.20;58.08;98534.44;5155403;27;20448;-59
2022/05/18 01:30:46;;;;;;;;;;;;;;;17.02;58.47;98533.03;5153201;27;19983;-58
2022/05/18 01:33:14;;;;;;;;;;;;;;;17.09;58.33;98533.28;5139406;27;19970;-58
2022/05/18 01:35:47;;;;;;;;;;;;;;;17.08;58.34;98539.91;5142518;27;19927;-58
2022/05/18 01:38:16;;;;;;;;;;;;;;;17.02;58.44;98544.81;5154776;27;20009;-59
2022/05/18 01:40:52;;;;;;;;;;;;;;;17.06;58.55;98550.44;5150408;27;20846;-59
2022/05/18 01:43:23;;;;;;;;;;;;;;;16.93;58.85;98546.81;5166747;27;19918;-58
2022/05/18 01:45:51;;;;;;;;;;;;;;;16.85;59.07;98544.97;5157148;27;19919;-59
2022/05/18 01:48:20;;;;;;;;;;;;;;;16.92;58.75;98544.44;5152453;27;19990;-58
2022/05/18 01:50:50;;;;;;;;;;;;;;;17.11;58.31;98541.19;5159119;27;19926;-59
2022/05/18 01:53:18;;;;;;;;;;;;;;;17.06;58.25;98541.41;5151678;27;20383;-60
2022/05/18 01:55:46;;;;;;;;;;;;;;;16.86;58.84;98537.56;5130683;27;19931;-59
2022/05/18 01:58:14;;;;;;;;;;;;;;;17.00;58.75;98546.31;5156160;27;20054;-59
2022/05/18 02:00:45;;;;;;;;;;;;;;;16.92;58.72;98545.22;5156340;27;20610;-59
2022/05/18 02:03:40;;;;;;;;;;;;;;;17.12;58.42;98554.56;5149134;27;19943;-59
2022/05/18 02:06:08;;;;;;;;;;;;;;;17.11;58.59;98561.22;5148752;27;20339;-59
2022/05/18 02:08:38;;;;;;;;;;;;;;;17.09;58.42;98552.50;5149612;27;19926;-59
2022/05/18 02:11:10;;;;;;;;;;;;;;;17.15;58.19;98559.41;5150250;27;19918;-58
2022/05/18 02:13:41;;;;;;;;;;;;;;;17.00;58.67;98560.03;5157402;27;20030;-58
2022/05/18 02:16:10;;;;;;;;;;;;;;;16.79;59.09;98551.03;5158433;27;19927;-58
2022/05/18 02:18:44;;;;;;;;;;;;;;;17.12;58.77;98562.00;5155123;27;19927;-59
2022/05/18 02:21:13;;;;;;;;;;;;;;;16.83;59.32;98563.75;5131890;27;19994;-58
2022/05/18 02:23:42;;;;;;;;;;;;;;;16.75;59.60;98559.13;5139453;27;20400;-58
2022/05/18 02:26:10;;;;;;;;;;;;;;;16.77;59.56;98559.56;5146059;27;20430;-60
2022/05/18 02:28:38;;;;;;;;;;;;;;;16.74;59.58;98558.31;5145461;27;20011;-59
2022/05/18 02:31:10;;;;;;;;;;;;;;;16.88;58.89;98554.47;5146403;27;19931;-58
2022/05/18 02:33:39;;;;;;;;;;;;;;;16.93;58.93;98557.81;5151041;27;19919;-58
2022/05/18 02:36:08;;;;;;;;;;;;;;;16.94;58.91;98562.19;5154970;27;19919;-58
2022/05/18 02:38:36;;;;;;;;;;;;;;;17.00;58.94;98554.53;5157700;27;20296;-58
2022/05/18 02:41:07;;;;;;;;;;;;;;;16.88;59.20;98560.75;5151120;27;20346;-59
2022/05/18 02:43:38;;;;;;;;;;;;;;;16.82;59.59;98555.81;5161138;27;19927;-58
2022/05/18 02:46:10;;;;;;;;;;;;;;;16.75;59.76;98550.88;5148381;27;19983;-58
2022/05/18 02:48:39;;;;;;;;;;;;;;;16.82;59.81;98556.63;5154572;27;19919;-59
2022/05/18 02:51:07;;;;;;;;;;;;;;;16.98;59.22;98570.53;5156585;27;20312;-58
2022/05/18 02:53:36;;;;;;;;;;;;;;;16.87;59.35;98569.34;5148236;27;19919;-59
2022/05/18 02:56:09;;;;;;;;;;;;;;;17.01;59.25;98572.59;5150304;27;19983;-59
2022/05/18 02:58:38;;;;;;;;;;;;;;;17.03;59.28;98584.84;5156747;27;20049;-58
2022/05/18 03:01:10;;;;;;;;;;;;;;;17.02;59.08;98582.44;5153767;27;19919;-59
2022/05/18 03:03:40;;;;;;;;;;;;;;;17.03;58.97;98581.28;5148548;27;20363;-59
2022/05/18 03:06:09;;;;;;;;;;;;;;;16.92;58.98;98593.84;5124559;27;19934;-58
2022/05/18 03:08:38;;;;;;;;;;;;;;;16.89;59.27;98594.53;5153867;27;19927;-58
2022/05/18 03:11:09;;;;;;;;;;;;;;;16.90;59.15;98596.13;5140319;27;19927;-59
2022/05/18 03:13:37;;;;;;;;;;;;;;;16.98;59.11;98596.03;5141020;27;19955;-58
2022/05/18 03:16:09;;;;;;;;;;;;;;;17.03;59.25;98595.03;5158743;27;19957;-58
2022/05/18 03:18:37;;;;;;;;;;;;;;;16.99;59.23;98596.81;5147250;27;19935;-57
2022/05/18 03:23:55;;;;;;;;;;;;;;;16.87;59.54;98602.28;5151079;27;19934;-58
2022/05/18 03:26:24;;;;;;;;;;;;;;;17.03;59.50;98603.25;5144173;27;20373;-58
2022/05/18 03:28:54;;;;;;;;;;;;;;;16.99;59.63;98602.31;5146110;27;20005;-60
2022/05/18 03:31:21;;;;;;;;;;;;;;;16.89;59.67;98608.25;5145592;27;19987;-60
2022/05/18 03:33:49;;;;;;;;;;;;;;;17.07;59.11;98598.69;5148151;27;20310;-57
2022/05/18 03:36:19;;;;;;;;;;;;;;;17.00;59.25;98606.69;5136607;27;20280;-57
2022/05/18 03:38:48;;;;;;;;;;;;;;;17.09;59.18;98603.84;5164550;27;19919;-57
2022/05/18 03:41:16;;;;;;;;;;;;;;;17.19;59.07;98614.41;5143182;27;19926;-60
2022/05/18 03:43:44;;;;;;;;;;;;;;;17.10;59.16;98614.50;5160293;27;19918;-57
2022/05/18 03:46:12;;;;;;;;;;;;;;;16.97;59.83;98612.84;5146678;27;20136;-58
2022/05/18 03:48:41;;;;;;;;;;;;;;;16.98;59.99;98614.44;5153705;27;19950;-58
2022/05/18 03:51:09;;;;;;;;;;;;;;;16.89;60.44;98616.47;5151086;27;20006;-58
2022/05/18 03:53:38;;;;;;;;;;;;;;;17.07;60.04;98611.63;5145148;27;19919;-58
2022/05/18 03:56:08;;;;;;;;;;;;;;;17.11;59.90;98618.88;5150111;27;19919;-59
2022/05/18 03:58:35;;;;;;;;;;;;;;;17.11;60.26;98618.88;5139393;27;20026;-58
2022/05/18 04:01:08;;;;;;;;;;;;;;;17.03;60.63;98616.97;5142570;27;19938;-61
2022/05/18 04:03:36;;;;;;;;;;;;;;;16.89;60.65;98611.78;5137391;27;19945;-59
2022/05/18 04:06:07;;;;;;;;;;;;;;;17.15;60.25;98617.06;5145364;27;20278;-60
2022/05/18 04:08:34;;;;;;;;;;;;;;;16.95;60.85;98620.63;5140980;27;20018;-59
2022/05/18 04:11:04;;;;;;;;;;;;;;;16.85;60.94;98627.31;5150004;27;20013;-59
2022/05/18 04:13:40;;;;;;;;;;;;;;;16.87;60.54;98626.97;5146996;27;19923;-59
2022/05/18 04:16:09;;;;;;;;;;;;;;;16.87;60.56;98624.22;5135874;27;19919;-58
2022/05/18 04:18:37;;;;;;;;;;;;;;;16.92;60.32;98622.06;5136498;27;19931;-59
2022/05/18 04:21:09;;;;;;;;;;;;;;;16.96;60.21;98623.03;5134214;27;20372;-58
2022/05/18 04:23:37;;;;;;;;;;;;;;;17.06;59.97;98627.31;5138981;27;20011;-58
2022/05/18 04:26:10;;;;;;;;;;;;;;;17.24;59.41;98623.25;5142962;27;19923;-58
2022/05/18 04:28:38;;;;;;;;;;;;;;;17.26;59.24;98626.47;5136603;27;19924;-59
2022/05/18 04:31:09;;;;;;;;;;;;;;;17.29;59.19;98624.97;5137635;27;19973;-59
2022/05/18 04:33:38;;;;;;;;;;;;;;;17.19;59.29;98625.41;5147607;27;19919;-59
2022/05/18 04:36:10;;;;;;;;;;;;;;;17.46;58.73;98630.28;5150933;27;19927;-59
2022/05/18 04:38:38;;;;;;;;;;;;;;;17.41;58.72;98621.47;5143854;27;19918;-59
2022/05/18 04:41:11;;;;;;;;;;;;;;;17.29;59.04;98630.47;5141414;27;19938;-62
2022/05/18 04:43:39;;;;;;;;;;;;;;;17.39;59.03;98632.00;5147892;27;19923;-59
2022/05/18 04:46:08;;;;;;;;;;;;;;;17.56;58.37;98640.06;5148434;27;19923;-61
2022/05/18 04:48:36;;;;;;;;;;;;;;;17.43;58.63;98646.66;5155195;27;20346;-59
2022/05/18 04:51:08;;;;;;;;;;;;;;;17.40;58.68;98658.31;5152022;27;19927;-63
2022/05/18 04:53:36;;;;;;;;;;;;;;;17.49;58.58;98656.31;5144772;27;19975;-60
2022/05/18 04:56:07;;;;;;;;;;;;;;;17.44;58.63;98664.75;5148612;27;19923;-60
2022/05/18 04:58:37;;;;;;;;;;;;;;;17.43;58.78;98665.91;5148750;27;19934;-59
2022/05/18 05:01:07;;;;;;;;;;;;;;;17.59;58.72;98666.88;5149500;27;20327;-59
2022/05/18 05:03:36;;;;;;;;;;;;;;;17.76;58.05;98671.41;5144247;27;20323;-59
2022/05/18 05:06:07;;;;;;;;;;;;;;;17.79;57.80;98671.53;5158028;27;19923;-60
2022/05/18 05:08:35;;;;;;;;;;;;;;;17.61;58.47;98678.31;5153233;27;19919;-58
2022/05/18 05:11:03;;;;;;;;;;;;;;;17.65;58.54;98676.50;5142782;27;20424;-58
2022/05/18 05:13:34;;;;;;;;;;;;;;;17.74;58.91;98676.44;5119995;27;19931;-61
2022/05/18 05:16:08;;;;;;;;;;;;;;;17.83;57.91;98684.59;5141055;27;19923;-58
2022/05/18 05:18:36;;;;;;;;;;;;;;;17.95;57.69;98687.34;5139309;27;19931;-59
2022/05/18 05:21:07;;;;;;;;;;;;;;;17.95;58.14;98690.94;5146005;27;19930;-60
2022/05/18 05:23:35;;;;;;;;;;;;;;;18.00;57.93;98687.13;5128839;27;19919;-58
2022/05/18 05:26:07;;;;;;;;;;;;;;;17.95;58.28;98693.69;5135269;27;19950;-57
2022/05/18 05:28:37;;;;;;;;;;;;;;;17.92;58.23;98702.59;5146582;27;19963;-60
2022/05/18 05:31:10;;;;;;;;;;;;;;;17.94;58.07;98702.25;5156820;27;19998;-58
2022/05/18 05:33:39;;;;;;;;;;;;;;;17.86;58.17;98703.16;5152973;27;20018;-58
2022/05/18 05:36:32;;;;;;;;;;;;;;;17.99;57.82;98702.03;5151024;27;19923;-60
2022/05/18 05:39:00;;;;;;;;;;;;;;;17.96;58.08;98698.03;5161581;27;19919;-59
2022/05/18 05:41:28;;;;;;;;;;;;;;;18.28;57.36;98707.34;5128857;27;19918;-59
2022/05/18 05:43:56;;;;;;;;;;;;;;;18.21;57.55;98711.78;5155739;27;19975;-60
2022/05/18 05:46:27;;;;;;;;;;;;;;;18.19;57.46;98703.91;5152357;27;19918;-58
2022/05/18 05:48:56;;;;;;;;;;;;;;;18.18;57.72;98699.53;5147825;27;20304;-59
2022/05/18 05:51:24;;;;;;;;;;;;;;;18.51;56.78;98709.63;5147403;27;20009;-58
2022/05/18 05:53:53;;;;;;;;;;;;;;;18.54;56.39;98715.28;5145673;27;20014;-63
2022/05/18 05:56:21;;;;;;;;;;;;;;;18.50;56.43;98727.31;5135293;27;20201;-59
2022/05/18 05:58:50;;;;;;;;;;;;;;;18.51;56.59;98717.91;5145747;27;20385;-59
2022/05/18 06:01:23;;;;;;;;;;;;;;;18.46;57.07;98716.16;5147102;27;19922;-59
2022/05/18 06:03:57;;;;;;;;;;;;;;;18.52;56.87;98714.78;5146233;27;20308;-59
2022/05/18 06:06:25;;;;;;;;;;;;;;;18.71;56.42;98714.25;5144399;27;19923;-59
2022/05/18 06:08:56;;;;;;;;;;;;;;;18.72;56.69;98713.09;5149071;27;19972;-59
2022/05/18 06:11:25;;;;;;;;;;;;;;;18.68;56.65;98714.94;5135443;27;20156;-59
2022/05/18 06:13:53;;;;;;;;;;;;;;;18.75;56.69;98717.09;5141952;27;19920;-59
2022/05/18 06:16:23;;;;;;;;;;;;;;;18.77;56.50;98715.63;5153956;27;19919;-58
2022/05/18 06:18:51;;;;;;;;;;;;;;;18.54;57.33;98728.22;5144660;27;19920;-61
2022/05/18 06:21:20;;;;;;;;;;;;;;;18.67;57.45;98724.31;5136315;27;19983;-58
2022/05/18 06:23:49;;;;;;;;;;;;;;;18.74;56.72;98730.06;5139712;27;19937;-58
2022/05/18 06:26:17;;;;;;;;;;;;;;;18.88;56.83;98737.19;5148001;27;20439;-58
2022/05/18 06:28:52;;;;;;;;;;;;;;;18.66;57.14;98739.22;5145548;27;19973;-61
2022/05/18 06:31:20;;;;;;;;;;;;;;;19.08;55.95;98750.00;5147524;27;19987;-58
2022/05/18 06:33:48;;;;;;;;;;;;;;;18.86;56.66;98745.00;5133669;27;19925;-59
2022/05/18 06:36:16;;;;;;;;;;;;;;;19.08;56.10;98752.75;5144647;27;20374;-58
2022/05/18 06:38:45;;;;;;;;;;;;;;;19.03;55.85;98756.56;5145489;27;19971;-59
2022/05/18 06:41:22;;;;;;;;;;;;;;;19.05;55.83;98758.94;5149840;27;19923;-58
2022/05/18 06:43:51;;;;;;;;;;;;;;;19.05;56.12;98761.69;5159686;27;20358;-59
2022/05/18 06:46:19;;;;;;;;;;;;;;;19.13;55.84;98766.28;5154550;27;19922;-59
2022/05/18 06:48:48;;;;;;;;;;;;;;;19.15;55.36;98765.94;5150374;27;20013;-59
2022/05/18 06:51:19;;;;;;;;;;;;;;;19.13;55.71;98762.75;5158900;27;20088;-58
2022/05/18 06:53:49;;;;;;;;;;;;;;;19.21;56.09;98772.81;5133757;27;19953;-58
2022/05/18 06:56:18;;;;;;;;;;;;;;;19.37;55.31;98766.22;5154836;27;20334;-59
2022/05/18 06:58:45;;;;;;;;;;;;;;;19.42;55.07;98769.91;5140802;27;19990;-60
2022/05/18 07:01:17;;;;;;;;;;;;;;;19.37;55.29;98760.72;5154856;27;20392;-59
2022/05/18 07:03:45;;;;;;;;;;;;;;;19.54;55.53;98761.59;5152824;27;20346;-59
2022/05/18 07:06:13;;;;;;;;;;;;;;;19.56;55.55;98756.53;5151604;27;19996;-59
2022/05/18 07:08:41;;;;;;;;;;;;;;;19.72;54.96;98754.66;5161601;27;20252;-59
2022/05/18 07:11:12;;;;;;;;;;;;;;;19.70;54.77;98754.19;5152214;27;19987;-59
2022/05/18 07:13:40;;;;;;;;;;;;;;;19.67;54.74;98756.88;5161871;27;20279;-59
2022/05/18 07:16:09;;;;;;;;;;;;;;;19.79;54.59;98754.84;5117398;27;19925;-59
2022/05/18 07:18:37;;;;;;;;;;;;;;;19.89;53.93;98751.59;5147220;27;19930;-59
2022/05/18 07:21:08;;;;;;;;;;;;;;;19.86;54.43;98749.53;5114372;27;20323;-60
2022/05/18 07:23:36;;;;;;;;;;;;;;;20.04;54.07;98752.78;5145953;27;19923;-59
2022/05/18 07:26:09;;;;;;;;;;;;;;;20.20;53.82;98747.28;5147254;27;20320;-62
2022/05/18 07:28:39;;;;;;;;;;;;;;;20.23;53.44;98763.13;5146334;27;19969;-59
2022/05/18 07:31:09;;;;;;;;;;;;;;;20.29;53.92;98755.38;5137061;27;20327;-60
2022/05/18 07:33:55;;;;;;;;;;;;;;;20.14;53.30;98743.19;5144181;27;20033;-59
2022/05/18 07:36:23;;;;;;;;;;;;;;;20.35;53.36;98749.25;5150980;27;19926;-61
2022/05/18 07:38:52;;;;;;;;;;;;;;;20.55;52.86;98741.88;5165116;27;19919;-60
2022/05/18 07:41:20;;;;;;;;;;;;;;;20.74;52.59;98738.41;5163426;27;20113;-59
2022/05/18 07:44:14;;;;;;;;;;;;;;;20.72;52.31;98734.38;5167497;27;19929;-60
2022/05/18 07:46:43;;;;;;;;;;;;;;;20.83;52.10;98740.97;5159968;27;20067;-57
2022/05/18 07:49:10;;;;;;;;;;;;;;;20.87;52.22;98747.38;5162063;27;19929;-58
2022/05/18 07:51:39;;;;;;;;;;;;;;;20.89;52.12;98751.38;5155495;27;19923;-59
2022/05/18 07:54:07;;;;;;;;;;;;;;;20.86;51.89;98751.28;5151303;27;19918;-58
2022/05/18 07:56:35;;;;;;;;;;;;;;;20.88;51.67;98741.50;5152701;27;19926;-57
2022/05/18 07:59:29;;;;;;;;;;;;;;;20.96;51.44;98739.69;5120334;27;19927;-63
2022/05/18 08:01:58;;;;;;;;;;;;;;;21.12;50.77;98740.44;5156626;27;20207;-58
2022/05/18 08:04:26;;;;;;;;;;;;;;;21.28;50.43;98745.94;5146142;27;20002;-58
2022/05/18 08:06:56;;;;;;;;;;;;;;;21.52;49.42;98744.06;5152737;27;19930;-58
2022/05/18 08:09:25;;;;;;;;;;;;;;;21.71;48.58;98747.66;5158628;27;19958;-58
2022/05/18 08:17:28;;;;;;;;;;;;;;;22.01;47.06;98760.06;5146627;27;20018;-58
2022/05/18 08:20:01;;;;;;;;;;;;;;;21.90;47.30;98763.44;5158708;27;19919;-58
2022/05/18 08:22:29;;;;;;;;;;;;;;;21.89;48.22;98759.06;5163056;27;19919;-59
2022/05/18 08:24:57;;;;;;;;;;;;;;;21.92;48.02;98763.06;5151125;27;19961;-58
2022/05/18 08:27:25;;;;;;;;;;;;;;;21.95;47.61;98765.91;5146917;27;20327;-58
2022/05/18 08:29:59;;;;;;;;;;;;;;;22.05;46.97;98767.28;5136066;27;19963;-58
2022/05/18 08:32:29;;;;;;;;;;;;;;;22.05;47.59;98758.97;5151781;27;19919;-60
2022/05/18 08:34:57;;;;;;;;;;;;;;;22.21;46.72;98772.72;5163396;27;19918;-58
2022/05/18 08:37:25;;;;;;;;;;;;;;;22.34;47.10;98763.09;5153935;27;19930;-58
2022/05/18 08:39:53;;;;;;;;;;;;;;;22.61;46.49;98760.38;5161902;27;19919;-59
2022/05/18 08:42:22;;;;;;;;;;;;;;;22.84;46.23;98766.66;5158226;27;20003;-58
2022/05/18 08:44:50;;;;;;;;;;;;;;;22.82;44.83;98762.69;5160951;27;19919;-58
2022/05/18 08:47:20;;;;;;;;;;;;;;;22.85;44.66;98756.38;5148254;27;19918;-58
2022/05/18 08:50:13;;;;;;;;;;;;;;;22.89;44.11;98757.28;5158056;27;20014;-56
2022/05/18 08:52:57;;;;;;;;;;;;;;;22.87;44.24;98757.63;5144453;27;20018;-58
2022/05/18 08:55:30;;;;;;;;;;;;;;;22.94;44.51;98757.75;5162960;27;20337;-57
2022/05/18 08:57:59;;;;;;;;;;;;;;;23.11;44.30;98763.94;5136258;27;20026;-56
2022/05/18 09:00:28;;;;;;;;;;;;;;;23.20;44.30;98761.69;5138267;27;20416;-57
2022/05/18 09:02:59;;;;;;;;;;;;;;;23.40;43.99;98754.84;5154795;27;19991;-56
2022/05/18 09:05:31;;;;;;;;;;;;;;;23.53;43.21;98761.75;5158148;27;19923;-57
2022/05/18 09:08:02;;;;;;;;;;;;;;;23.58;43.46;98754.28;5143733;27;19983;-57
2022/05/18 09:10:32;;;;;;;;;;;;;;;23.70;42.06;98759.59;5161433;27;20366;-56
2022/05/18 09:13:01;;;;;;;;;;;;;;;23.66;42.69;98758.78;5161559;27;19962;-57
2022/05/18 09:15:34;;;;;;;;;;;;;;;23.62;41.76;98764.25;5158927;27;19946;-56
2022/05/18 09:18:06;;;;;;;;;;;;;;;23.48;42.33;98756.53;5170478;27;19919;-58
2022/05/18 09:20:35;;;;;;;;;;;;;;;23.61;41.84;98756.31;5133802;27;20366;-56
2022/05/18 09:23:13;;;;;;;;;;;;;;;23.61;42.39;98759.06;5140400;27;19920;-58
2022/05/18 09:25:48;;;;;;;;;;;;;;;23.67;41.06;98752.03;5152604;27;19923;-57
2022/05/18 09:28:21;;;;;;;;;;;;;;;23.71;40.67;98755.66;5148035;27;19979;-57
2022/05/18 09:30:52;;;;;;;;;;;;;;;23.87;40.44;98752.69;5138882;27;20017;-57
2022/05/18 09:33:30;;;;;;;;;;;;;;;23.85;40.72;98752.25;5136680;27;20424;-57
2022/05/18 09:36:23;;;;;;;;;;;;;;;23.91;40.82;98754.28;5158058;27;20331;-56
2022/05/18 09:38:57;;;;;;;;;;;;;;;23.97;40.66;98752.81;5149449;27;19919;-58
2022/05/18 09:41:27;;;;;;;;;;;;;;;24.02;40.12;98760.78;5159684;27;20417;-57
2022/05/18 09:43:58;;;;;;;;;;;;;;;23.87;39.04;98753.47;5162803;27;19977;-61
2022/05/18 09:46:27;;;;;;;;;;;;;;;24.00;39.82;98759.56;5155250;27;20386;-58
2022/05/18 09:48:56;;;;;;;;;;;;;;;24.14;38.90;98762.50;5158029;27;19923;-57
2022/05/18 09:51:24;;;;;;;;;;;;;;;24.43;37.30;98760.81;5159898;27;19959;-58
2022/05/18 09:53:54;;;;;;;;;;;;;;;24.38;37.38;98754.81;5142379;27;20318;-62
2022/05/18 09:56:25;;;;;;;;;;;;;;;24.42;37.93;98739.78;5129573;27;19919;-59
2022/05/18 09:58:58;;;;;;;;;;;;;;;24.48;38.43;98746.56;5159427;27;19925;-56
2022/05/18 10:10:00;;;;;;;;;;;;;;;24.34;38.68;98740.84;5153072;27;20327;-56
2022/05/18 10:12:32;;;;;;;;;;;;;;;24.41;38.55;98737.38;5157120;27;20248;-57
2022/05/18 10:15:02;;;;;;;;;;;;;;;24.50;38.94;98740.63;5159956;27;19983;-57
2022/05/18 10:17:31;;;;;;;;;;;;;;;24.76;37.32;98736.84;5149393;27;20330;-57
2022/05/18 10:20:02;;;;;;;;;;;;;;;24.48;37.15;98727.13;5148601;27;20018;-56
2022/05/18 10:22:31;;;;;;;;;;;;;;;24.66;36.33;98726.47;5147167;27;20346;-56
2022/05/18 10:25:07;;;;;;;;;;;;;;;24.68;36.88;98727.69;5144101;27;20072;-57
2022/05/18 10:27:37;;;;;;;;;;;;;;;24.75;38.59;98716.63;5152198;27;19959;-58
2022/05/18 10:30:08;;;;;;;;;;;;;;;24.92;37.47;98723.47;5143623;27;19925;-59
2022/05/18 10:32:38;;;;;;;;;;;;;;;24.94;37.32;98725.88;5127025;27;19919;-57
2022/05/18 10:35:07;;;;;;;;;;;;;;;24.84;37.10;98716.28;5162949;27;19955;-58
2022/05/18 10:37:36;;;;;;;;;;;;;;;25.05;37.06;98721.97;5156222;27;19995;-58
2022/05/18 10:40:09;;;;;;;;;;;;;;;24.97;37.50;98714.78;5159792;27;19958;-59
2022/05/18 10:42:43;;;;;;;;;;;;;;;24.93;37.31;98715.94;5150412;27;19927;-58
2022/05/18 10:45:27;;;;;;;;;;;;;;;24.98;37.23;98710.00;5134341;27;19962;-59
2022/05/18 10:47:59;;;;;;;;;;;;;;;25.06;36.61;98712.47;5154277;27;19979;-58
2022/05/18 10:50:28;;;;;;;;;;;;;;;25.20;36.92;98703.44;5122405;27;20384;-58
2022/05/18 10:52:59;;;;;;;;;;;;;;;25.27;36.70;98699.88;5153215;27;19926;-58
2022/05/18 10:55:30;;;;;;;;;;;;;;;25.27;36.73;98700.69;5164696;27;19919;-60
2022/05/18 10:58:00;;;;;;;;;;;;;;;25.29;37.39;98705.84;5158246;27;20000;-57
2022/05/18 11:00:33;;;;;;;;;;;;;;;25.44;36.14;98703.91;5142084;27;19923;-57
2022/05/18 11:03:05;;;;;;;;;;;;;;;25.28;36.66;98699.47;5156623;27;19923;-57
2022/05/18 11:05:38;;;;;;;;;;;;;;;25.26;36.96;98696.31;5158569;27;19923;-57
2022/05/18 11:08:07;;;;;;;;;;;;;;;25.18;36.08;98702.22;5154747;27;19919;-59
2022/05/18 11:10:38;;;;;;;;;;;;;;;25.14;37.24;98693.03;5158723;27;19923;-57
2022/05/18 11:13:07;;;;;;;;;;;;;;;24.93;36.63;98691.75;5155800;27;20323;-58
2022/05/18 11:15:36;;;;;;;;;;;;;;;24.56;37.05;98684.34;5154442;27;19920;-57
2022/05/18 11:18:07;;;;;;;;;;;;;;;24.39;37.10;98678.63;5149797;27;19929;-61
2022/05/18 11:20:38;;;;;;;;;;;;;;;24.35;37.56;98678.63;5148329;27;19918;-58
2022/05/18 11:23:10;;;;;;;;;;;;;;;24.36;37.94;98684.97;5145948;27;20243;-58
2022/05/18 11:25:42;;;;;;;;;;;;;;;24.30;38.52;98676.16;5131227;27;20031;-60
2022/05/18 11:28:55;;;;;;;;;;;;;;;24.43;37.60;98671.94;5149144;27;19919;-58
2022/05/18 11:31:40;;;;;;;;;;;;;;;24.68;37.93;98672.13;5140687;27;19923;-58
2022/05/18 11:34:10;;;;;;;;;;;;;;;24.75;36.07;98665.78;5148012;27;19923;-58
2022/05/18 11:36:41;;;;;;;;;;;;;;;24.84;36.30;98666.25;5137458;27;20251;-58
2022/05/18 11:39:11;;;;;;;;;;;;;;;24.78;37.07;98667.81;5153300;27;19918;-58
2022/05/18 11:41:51;;;;;;;;;;;;;;;24.74;37.46;98662.22;5139107;27;19986;-59
2022/05/18 11:44:24;;;;;;;;;;;;;;;24.70;37.41;98664.19;5159029;27;20379;-58
2022/05/18 11:46:55;;;;;;;;;;;;;;;24.76;37.31;98662.63;5148371;27;20026;-58
2022/05/18 11:49:25;;;;;;;;;;;;;;;24.66;36.93;98660.59;5129603;27;19923;-58
2022/05/18 11:51:58;;;;;;;;;;;;;;;24.84;36.33;98666.25;5151341;27;20076;-59
2022/05/18 11:57:29;;;;;;;;;;;;;;;25.25;36.34;98655.00;5142530;27;19930;-59
2022/05/18 12:00:12;;;;;;;;;;;;;;;25.33;36.18;98654.59;5137764;27;19918;-58
2022/05/18 12:02:53;;;;;;;;;;;;;;;25.57;36.39;98649.53;5163060;27;19942;-58
2022/05/18 12:05:31;;;;;;;;;;;;;;;25.72;36.32;98650.34;5154112;27;19930;-59
2022/05/18 12:08:10;;;;;;;;;;;;;;;25.80;34.58;98646.44;5142155;27;19919;-59
2022/05/18 12:10:39;;;;;;;;;;;;;;;25.71;34.54;98651.53;5146949;27;19965;-59
2022/05/18 12:13:09;;;;;;;;;;;;;;;25.70;35.44;98641.59;5153618;27;20005;-56
2022/05/18 12:15:40;;;;;;;;;;;;;;;25.74;33.95;98645.19;5159491;27;19973;-57
2022/05/18 12:18:09;;;;;;;;;;;;;;;25.73;34.38;98640.81;5165021;27;19979;-59
2022/05/18 12:20:38;;;;;;;;;;;;;;;25.78;34.95;98641.25;5157002;27;19918;-58
2022/05/18 12:23:06;;;;;;;;;;;;;;;25.60;33.62;98632.03;5137718;27;19919;-57
2022/05/18 12:25:34;;;;;;;;;;;;;;;25.71;36.20;98635.63;5157493;27;19924;-58
2022/05/18 12:28:04;;;;;;;;;;;;;;;25.73;34.24;98638.03;5153501;27;20019;-59
2022/05/18 12:30:34;;;;;;;;;;;;;;;25.84;35.93;98624.97;5162745;27;20017;-58
2022/05/18 12:33:03;;;;;;;;;;;;;;;25.92;34.63;98626.56;5142096;27;19972;-58
2022/05/18 12:35:32;;;;;;;;;;;;;;;25.91;34.08;98629.75;5167726;27;19963;-58
2022/05/18 12:38:05;;;;;;;;;;;;;;;26.00;34.11;98628.16;5148033;27;20306;-58
2022/05/18 12:40:35;;;;;;;;;;;;;;;26.11;33.74;98631.75;5152389;27;19926;-57
2022/05/18 12:43:04;;;;;;;;;;;;;;;26.13;33.90;98625.78;5166423;27;19930;-58
2022/05/18 12:45:37;;;;;;;;;;;;;;;25.87;32.64;98621.38;5162754;27;19958;-58
2022/05/18 12:48:08;;;;;;;;;;;;;;;25.85;33.45;98624.56;5166277;27;20298;-58
2022/05/18 12:50:57;;;;;;;;;;;;;;;26.03;33.04;98630.13;5149834;27;19969;-58
2022/05/18 12:53:27;;;;;;;;;;;;;;;26.14;34.72;98630.13;5161707;27;20118;-58
2022/05/18 12:55:57;;;;;;;;;;;;;;;26.15;32.74;98630.94;5156672;27;19923;-59
2022/05/18 12:58:27;;;;;;;;;;;;;;;26.19;32.49;98620.59;5158873;27;19994;-58
2022/05/18 13:01:13;;;;;;;;;;;;;;;25.92;32.79;98629.34;5152211;27;19923;-58
2022/05/18 13:03:43;;;;;;;;;;;;;;;25.60;34.53;98630.03;5160642;27;19919;-58
2022/05/18 13:06:13;;;;;;;;;;;;;;;25.69;33.28;98624.13;5167295;27;19979;-59
2022/05/18 13:08:49;;;;;;;;;;;;;;;25.63;33.27;98625.69;5153836;27;19918;-58
2022/05/18 13:11:26;;;;;;;;;;;;;;;25.51;33.13;98620.47;5126540;27;19958;-57
2022/05/18 13:13:56;;;;;;;;;;;;;;;25.71;33.64;98620.94;5139131;27;20026;-58
2022/05/18 13:16:38;;;;;;;;;;;;;;;25.61;32.60;98614.94;5160433;27;20105;-59
2022/05/18 13:19:15;;;;;;;;;;;;;;;25.58;32.59;98612.97;5138901;27;19919;-58
2022/05/18 13:21:44;;;;;;;;;;;;;;;25.49;33.46;98620.88;5145153;27;19938;-58
2022/05/18 13:24:17;;;;;;;;;;;;;;;25.48;32.56;98616.50;5151945;27;20017;-58
2022/05/18 13:26:46;;;;;;;;;;;;;;;25.51;33.48;98617.69;5139106;27;19954;-58